Time;durP1;ratioP1;P1;durP2;ratioP2;P2;SDS_P1;SDS_P2;PMS_P1;PMS_P2;Temp;Humidity;BMP_temperature;BMP_pressure;BME280_temperature;BME280_humidity;BME280_pressure;Samples;Min_cycle;Max_cycle;Signal;HPM_P1;HPM_P2
2021/03/13 00:01:45;;;;;;;24.37;15.25;;;;;;;-1.15;85.66;100696.81;1654443;86;21246;-56
2021/03/13 00:04:52;;;;;;;31.73;17.85;;;;;;;-1.20;85.33;100687.30;1654715;86;21424;-56
2021/03/13 00:07:59;;;;;;;32.40;18.80;;;;;;;-1.26;85.14;100676.95;1654551;85;21404;-56
2021/03/13 00:11:05;;;;;;;28.27;16.67;;;;;;;-1.30;85.00;100674.08;1654333;86;21226;-56
2021/03/13 00:14:10;;;;;;;27.15;16.67;;;;;;;-1.25;85.12;100678.69;1654738;85;21778;-56
2021/03/13 00:17:17;;;;;;;28.77;17.07;;;;;;;-1.29;84.80;100679.35;1654793;85;21408;-56
2021/03/13 00:20:26;;;;;;;27.60;16.90;;;;;;;-1.31;84.75;100673.20;1655065;86;21392;-56
2021/03/13 00:23:32;;;;;;;26.70;16.12;;;;;;;-1.20;84.96;100675.22;1655076;85;21443;-56
2021/03/13 00:26:39;;;;;;;28.30;15.53;;;;;;;-1.15;84.85;100673.11;1654807;86;21223;-56
2021/03/13 00:29:45;;;;;;;23.47;14.55;;;;;;;-1.14;84.38;100670.83;1655136;86;21372;-56
2021/03/13 00:32:52;;;;;;;25.30;14.50;;;;;;;-1.14;84.24;100664.13;1654874;85;21237;-56
2021/03/13 00:35:59;;;;;;;23.10;14.38;;;;;;;-1.11;83.94;100659.89;1669167;84;21755;-56
2021/03/13 00:39:08;;;;;;;20.48;12.82;;;;;;;-1.11;83.67;100657.21;1666597;84;21388;-56
2021/03/13 00:42:18;;;;;;;22.10;12.70;;;;;;;-1.11;83.42;100643.78;1639945;86;21825;-56
2021/03/13 00:45:27;;;;;;;21.73;12.80;;;;;;;-1.11;83.31;100647.81;1700724;84;21348;-55
2021/03/13 00:48:34;;;;;;;23.42;13.03;;;;;;;-1.07;83.17;100641.27;1640059;86;21269;-55
2021/03/13 00:51:41;;;;;;;21.85;12.10;;;;;;;-1.01;83.02;100643.56;1700748;84;21371;-56
2021/03/13 00:54:48;;;;;;;23.42;11.65;;;;;;;-0.92;82.83;100643.01;1668918;85;21712;-55
2021/03/13 00:57:54;;;;;;;20.43;11.55;;;;;;;-0.92;82.36;100640.32;1700357;83;21209;-56
2021/03/13 01:01:09;;;;;;;18.32;11.83;;;;;;;-0.94;82.26;100634.17;1668773;85;21223;-54
2021/03/13 01:04:15;;;;;;;16.87;11.18;;;;;;;-0.90;82.30;100637.03;1668756;84;21274;-56
2021/03/13 01:07:23;;;;;;;22.40;11.35;;;;;;;-0.84;82.29;100633.98;1700250;83;21395;-57
2021/03/13 01:10:38;;;;;;;20.68;11.60;;;;;;;-0.78;81.95;100642.98;1668617;86;21705;-54
2021/03/13 01:13:43;;;;;;;18.45;11.03;;;;;;;-0.79;81.42;100639.89;1701011;83;21448;-55
2021/03/13 01:16:52;;;;;;;18.02;11.93;;;;;;;-0.73;81.62;100636.84;1668707;85;21772;-57
2021/03/13 01:19:59;;;;;;;19.57;12.53;;;;;;;-0.64;81.63;100639.80;1700405;84;21213;-55
2021/03/13 01:23:07;;;;;;;19.00;10.93;;;;;;;-0.58;81.42;100636.70;1639830;86;21280;-55
2021/03/13 01:26:14;;;;;;;18.07;11.15;;;;;;;-0.55;81.16;100641.00;1700582;84;21339;-57
2021/03/13 01:29:23;;;;;;;16.10;10.88;;;;;;;-0.59;80.69;100633.65;1640149;86;21762;-54
2021/03/13 01:32:31;;;;;;;15.53;9.93;;;;;;;-0.55;80.63;100629.78;1698481;83;21234;-54
2021/03/13 01:35:38;;;;;;;17.30;10.63;;;;;;;-0.50;80.45;100624.10;1686711;85;21420;-54
2021/03/13 01:38:43;;;;;;;20.02;10.95;;;;;;;-0.49;80.23;100628.53;1687104;83;21408;-57
2021/03/13 01:41:50;;;;;;;18.73;11.93;;;;;;;-0.55;79.65;100628.91;1686974;84;21364;-55
2021/03/13 01:44:56;;;;;;;20.75;12.10;;;;;;;-0.56;79.55;100625.38;1686932;84;21234;-56
2021/03/13 01:48:02;;;;;;;17.70;12.00;;;;;;;-0.56;79.48;100635.26;1686880;83;21376;-56
2021/03/13 01:51:10;;;;;;;21.00;12.88;;;;;;;-0.60;79.29;100631.03;1691582;84;21375;-55
2021/03/13 01:54:17;;;;;;;18.20;10.93;;;;;;;-0.55;79.18;100632.94;1685614;84;21804;-54
2021/03/13 01:57:27;;;;;;;13.98;10.60;;;;;;;-0.48;79.32;100625.75;1686293;83;21948;-55
2021/03/13 02:00:34;;;;;;;17.85;10.72;;;;;;;-0.37;78.92;100631.75;1691545;84;21447;-55
2021/03/13 02:03:43;;;;;;;22.22;11.45;;;;;;;-0.37;78.61;100625.90;1686921;83;21362;-55
2021/03/13 02:06:50;;;;;;;17.50;11.18;;;;;;;-0.38;78.05;100630.03;1687397;84;21400;-55
2021/03/13 02:10:16;;;;;;;19.40;11.30;;;;;;;-0.34;78.15;100625.69;1691572;85;21354;-55
2021/03/13 02:13:42;;;;;;;16.57;11.12;;;;;;;-0.26;77.95;100628.74;1686779;83;21496;-55
2021/03/13 02:17:01;;;;;;;16.67;11.90;;;;;;;-0.16;77.75;100633.03;1691586;84;21424;-55
2021/03/13 02:21:03;;;;;;;15.20;10.88;;;;;;;-0.12;77.12;100631.84;1686922;85;21889;-58
2021/03/13 02:24:31;;;;;;;15.75;10.28;;;;;;;-0.17;76.67;100632.16;1692115;83;21369;-55
2021/03/13 02:27:44;;;;;;;17.20;11.18;;;;;;;-0.19;76.27;100626.52;1686783;83;21369;-54
2021/03/13 02:30:53;;;;;;;16.57;10.58;;;;;;;-0.19;76.25;100631.89;1686988;84;21215;-54
2021/03/13 02:34:01;;;;;;;15.68;10.50;;;;;;;-0.18;75.97;100633.60;1692615;82;21779;-55
2021/03/13 02:37:27;;;;;;;17.12;12.00;;;;;;;-0.17;75.74;100626.77;1686448;83;21506;-54
2021/03/13 02:40:36;;;;;;;17.35;10.95;;;;;;;-0.12;75.43;100620.61;1687115;84;21388;-55
2021/03/13 02:43:43;;;;;;;17.50;11.68;;;;;;;-0.09;75.44;100614.15;1691730;83;21428;-56
2021/03/13 02:46:57;;;;;;;19.77;12.15;;;;;;;-0.05;75.18;100617.87;1685776;85;21432;-54
2021/03/13 02:50:05;;;;;;;16.23;11.05;;;;;;;0.04;75.16;100616.40;1691629;84;21367;-55
2021/03/13 02:53:17;;;;;;;15.25;11.08;;;;;;;0.11;74.97;100612.81;1686664;83;21310;-55
2021/03/13 02:56:25;;;;;;;16.73;11.03;;;;;;;0.19;74.89;100619.38;1686925;84;21415;-55
2021/03/13 02:59:30;;;;;;;15.13;11.28;;;;;;;0.29;74.71;100619.13;1687570;84;21397;-55
2021/03/13 03:02:39;;;;;;;16.82;10.90;;;;;;;0.38;74.31;100616.30;1687007;83;21294;-54
2021/03/13 03:05:47;;;;;;;19.40;11.53;;;;;;;0.45;74.12;100625.19;1691676;84;21380;-55
2021/03/13 03:09:03;;;;;;;18.07;11.95;;;;;;;0.47;73.76;100626.42;1686685;83;21399;-55
2021/03/13 03:12:12;;;;;;;14.60;10.50;;;;;;;0.46;73.65;100634.14;1689076;83;21348;-55
2021/03/13 03:15:21;;;;;;;19.80;11.80;;;;;;;0.44;73.58;100634.24;1679606;85;21366;-55
2021/03/13 03:18:27;;;;;;;18.85;12.37;;;;;;;0.44;73.52;100637.41;1691694;83;21265;-56
2021/03/13 03:21:34;;;;;;;20.05;12.25;;;;;;;0.43;73.60;100640.58;1686314;85;21344;-56
2021/03/13 03:24:41;;;;;;;16.17;10.90;;;;;;;0.47;73.66;100640.77;1686865;84;21265;-55
2021/03/13 03:27:53;;;;;;;19.30;12.00;;;;;;;0.46;73.65;100635.48;1687400;83;21462;-55
2021/03/13 03:31:00;;;;;;;19.67;11.75;;;;;;;0.49;73.73;100642.84;1686989;84;21298;-55
2021/03/13 03:34:07;;;;;;;14.45;10.03;;;;;;;0.45;73.75;100641.34;1686851;83;21243;-55
2021/03/13 03:37:14;;;;;;;14.63;10.98;;;;;;;0.42;74.07;100636.64;1669388;84;21198;-54
2021/03/13 03:40:20;;;;;;;15.25;11.05;;;;;;;0.39;74.31;100642.25;1700418;84;21346;-55
2021/03/13 03:43:42;;;;;;;16.82;11.25;;;;;;;0.45;74.65;100641.81;1640145;86;21754;-55
2021/03/13 03:46:49;;;;;;;14.10;10.47;;;;;;;0.52;74.55;100644.48;1701356;84;21249;-55
2021/03/13 03:49:57;;;;;;;15.35;11.53;;;;;;;0.49;74.63;100651.42;1668864;85;21211;-55
2021/03/13 03:53:12;;;;;;;13.62;10.32;;;;;;;0.51;74.82;100657.58;1668617;84;21342;-55
2021/03/13 03:56:17;;;;;;;14.87;10.72;;;;;;;0.63;74.91;100656.23;1668615;86;21215;-55
2021/03/13 03:59:25;;;;;;;16.67;11.78;;;;;;;0.73;74.80;100659.16;1700262;83;21395;-55
2021/03/13 04:02:30;;;;;;;14.70;10.53;;;;;;;0.81;74.61;100663.02;1668560;84;21763;-55
2021/03/13 04:05:36;;;;;;;16.35;10.88;;;;;;;0.81;74.46;100654.09;1700512;84;21922;-56
2021/03/13 04:08:41;;;;;;;16.48;10.93;;;;;;;0.83;74.49;100656.17;1639879;86;21281;-55
2021/03/13 04:11:47;;;;;;;17.67;11.60;;;;;;;0.83;74.63;100645.39;1700718;84;21821;-56
2021/03/13 04:14:53;;;;;;;15.32;11.12;;;;;;;0.85;74.63;100645.69;1640135;87;21225;-55
2021/03/13 04:17:58;;;;;;;15.13;11.15;;;;;;;0.80;74.64;100648.31;1702914;83;21284;-54
2021/03/13 04:21:04;;;;;;;17.52;12.10;;;;;;;0.84;74.84;100648.48;1640496;87;21241;-56
2021/03/13 04:24:10;;;;;;;17.32;11.48;;;;;;;0.85;75.05;100652.42;1700538;83;21395;-55
2021/03/13 04:27:15;;;;;;;17.67;12.55;;;;;;;0.95;75.15;100647.24;1640002;86;21230;-55
2021/03/13 04:30:25;;;;;;;16.25;11.73;;;;;;;1.07;75.17;100644.53;1700483;84;21371;-55
2021/03/13 04:33:32;;;;;;;18.25;12.25;;;;;;;1.22;75.09;100650.66;1668079;84;21258;-55
2021/03/13 04:36:38;;;;;;;15.03;11.20;;;;;;;1.36;74.97;100643.27;1707008;83;21216;-55
2021/03/13 04:39:44;;;;;;;18.75;12.37;;;;;;;1.50;74.71;100639.59;1678739;85;21747;-55
2021/03/13 04:42:52;;;;;;;17.05;12.37;;;;;;;1.59;74.23;100632.16;1669355;84;21444;-55
2021/03/13 04:45:57;;;;;;;17.05;12.25;;;;;;;1.67;74.09;100631.58;1680631;85;21350;-54
2021/03/13 04:49:04;;;;;;;19.62;11.85;;;;;;;1.73;73.75;100632.50;1705188;83;21241;-55
2021/03/13 04:52:10;;;;;;;18.60;11.55;;;;;;;1.75;73.44;100637.27;1678603;84;21235;-55
2021/03/13 04:55:16;;;;;;;15.35;11.60;;;;;;;1.76;73.25;100631.77;1669056;85;21388;-55
2021/03/13 04:58:21;;;;;;;18.82;12.13;;;;;;;1.80;73.12;100640.50;1704972;83;21293;-55
2021/03/13 05:01:26;;;;;;;18.75;13.05;;;;;;;1.87;73.19;100644.48;1678639;85;21448;-55
2021/03/13 05:04:32;;;;;;;20.20;11.18;;;;;;;1.92;72.93;100644.48;1678855;85;21286;-56
2021/03/13 05:07:37;;;;;;;23.25;13.08;;;;;;;1.92;72.64;100643.65;1705597;82;21523;-56
2021/03/13 05:10:43;;;;;;;17.25;11.53;;;;;;;1.77;72.47;100635.33;1678582;85;21222;-55
2021/03/13 05:13:49;;;;;;;22.98;12.82;;;;;;;1.72;72.69;100632.11;1705604;83;21209;-54
2021/03/13 05:16:56;;;;;;;21.62;13.58;;;;;;;1.59;72.78;100640.76;1678723;85;21381;-54
2021/03/13 05:20:04;;;;;;;23.62;14.98;;;;;;;1.54;73.13;100639.25;1705804;84;21189;-56
2021/03/13 05:23:09;;;;;;;21.95;13.93;;;;;;;1.50;73.43;100639.59;1678808;84;21250;-55
2021/03/13 05:26:15;;;;;;;30.48;15.68;;;;;;;1.55;73.61;100636.91;1705555;84;21390;-55
2021/03/13 05:29:20;;;;;;;25.05;15.83;;;;;;;1.57;73.73;100644.05;1678671;84;21262;-56
2021/03/13 05:32:26;;;;;;;24.05;15.08;;;;;;;1.64;73.90;100652.05;1705731;83;21384;-55
2021/03/13 05:35:32;;;;;;;26.05;15.65;;;;;;;1.74;73.93;100642.30;1678797;85;21224;-55
2021/03/13 05:38:37;;;;;;;23.98;15.18;;;;;;;1.82;73.83;100648.00;1705643;82;21888;-55
2021/03/13 05:41:48;;;;;;;21.90;14.95;;;;;;;1.85;73.72;100654.52;1668807;86;21247;-55
2021/03/13 05:44:50;;;;;;;29.92;16.90;;;;;;;1.88;73.73;100659.69;1700212;83;21341;-54
2021/03/13 05:47:56;;;;;;;30.08;16.32;;;;;;;1.94;73.77;100663.27;1639886;86;21241;-55
2021/03/13 05:51:06;;;;;;;24.55;15.05;;;;;;;2.02;73.70;100673.00;1700120;84;21273;-55
2021/03/13 05:54:13;;;;;;;31.68;17.45;;;;;;;2.06;73.48;100674.00;1639919;86;21296;-56
2021/03/13 05:57:18;;;;;;;27.45;15.55;;;;;;;1.96;73.24;100673.47;1700499;83;21467;-55
2021/03/13 06:00:26;;;;;;;29.18;16.67;;;;;;;1.98;73.45;100667.48;1640222;87;21569;-56
2021/03/13 06:03:31;;;;;;;28.15;18.07;;;;;;;1.98;73.39;100673.75;1700492;83;21410;-55
2021/03/13 06:06:37;;;;;;;31.20;19.25;;;;;;;1.99;73.56;100674.11;1640143;87;21232;-54
2021/03/13 06:09:44;;;;;;;33.80;19.20;;;;;;;1.97;73.44;100684.15;1700719;84;21355;-55
2021/03/13 06:12:51;;;;;;;37.88;21.87;;;;;;;1.99;73.56;100679.98;1668601;84;21258;-55
2021/03/13 06:15:57;;;;;;;37.75;20.97;;;;;;;2.02;73.64;100695.95;1699915;84;21364;-55
2021/03/13 06:19:03;;;;;;;48.52;25.23;;;;;;;2.14;73.79;100700.45;1668193;84;21783;-55
2021/03/13 06:22:08;;;;;;;36.65;21.45;;;;;;;2.34;73.80;100697.98;1700385;83;21743;-55
2021/03/13 06:25:29;;;;;;;36.55;20.50;;;;;;;2.48;73.16;100695.08;1639631;87;21273;-55
2021/03/13 06:28:38;;;;;;;35.95;19.98;;;;;;;2.52;72.93;100706.52;1700231;83;21360;-55
2021/03/13 06:31:44;;;;;;;34.83;20.62;;;;;;;2.49;72.69;100704.06;1639634;87;21236;-55
2021/03/13 06:34:50;;;;;;;38.20;19.95;;;;;;;2.49;72.71;100702.70;1700929;84;21209;-57
2021/03/13 06:37:56;;;;;;;52.03;26.82;;;;;;;2.55;72.67;100703.59;1639566;86;21276;-56
2021/03/13 06:41:03;;;;;;;46.90;25.17;;;;;;;2.54;72.59;100704.54;1699754;84;21742;-55
2021/03/13 06:44:08;;;;;;;40.78;23.77;;;;;;;2.60;72.62;100693.29;1639726;86;21408;-56
2021/03/13 06:47:16;;;;;;;46.88;23.30;;;;;;;2.67;72.45;100699.92;1699200;83;21371;-56
2021/03/13 06:50:31;;;;;;;49.08;23.85;;;;;;;2.66;72.40;100711.73;1636327;86;21275;-55
2021/03/13 06:53:36;;;;;;;43.23;23.98;;;;;;;2.65;72.20;100716.26;1699883;83;21234;-55
2021/03/13 06:57:05;;;;;;;50.55;23.15;;;;;;;2.66;72.43;100717.12;1639739;87;21214;-55
2021/03/13 07:00:10;;;;;;;36.83;21.48;;;;;;;2.77;72.50;100722.57;1700182;84;21885;-54
2021/03/13 07:03:23;;;;;;;43.65;22.93;;;;;;;2.90;72.35;100725.55;1653214;85;21257;-54
2021/03/13 07:06:28;;;;;;;46.73;23.12;;;;;;;2.96;72.20;100733.69;1701917;84;21214;-55
2021/03/13 07:10:01;;;;;;;42.30;22.25;;;;;;;3.10;71.93;100740.23;1640024;87;21241;-55
2021/03/13 07:13:07;;;;;;;44.45;24.23;;;;;;;3.11;71.56;100747.86;1699821;83;21403;-54
2021/03/13 07:16:46;;;;;;;41.68;23.83;;;;;;;3.17;71.57;100750.95;1640143;87;21281;-56
2021/03/13 07:19:51;;;;;;;44.85;24.63;;;;;;;3.30;71.55;100748.14;1700404;84;21399;-54
2021/03/13 07:23:06;;;;;;;39.48;22.27;;;;;;;3.46;71.16;100746.78;1640336;86;21260;-54
2021/03/13 07:26:11;;;;;;;49.77;24.77;;;;;;;3.53;70.65;100748.52;1700455;84;21190;-56
2021/03/13 07:29:18;;;;;;;44.58;24.45;;;;;;;3.49;70.29;100747.89;1667808;84;21239;-53
2021/03/13 07:32:26;;;;;;;49.33;24.35;;;;;;;3.53;70.36;100749.87;1700658;83;21438;-54
2021/03/13 07:35:32;;;;;;;53.60;25.60;;;;;;;3.63;70.28;100751.70;1639993;87;21260;-55
2021/03/13 07:38:38;;;;;;;69.58;34.27;;;;;;;3.78;70.20;100756.38;1701792;83;21354;-54
2021/03/13 07:41:44;;;;;;;50.28;28.92;;;;;;;3.88;69.83;100756.89;1677544;85;21472;-55
2021/03/13 07:44:53;;;;;;;44.18;23.22;;;;;;;4.02;69.56;100758.47;1676644;85;21922;-54
2021/03/13 07:47:58;;;;;;;40.88;21.95;;;;;;;4.14;69.29;100768.28;1705032;83;21781;-53
2021/03/13 07:51:05;;;;;;;43.55;24.05;;;;;;;4.26;69.02;100766.81;1678217;85;21744;-55
2021/03/13 07:54:11;;;;;;;51.92;24.67;;;;;;;4.29;68.35;100765.20;1678562;84;21389;-54
2021/03/13 07:57:16;;;;;;;46.50;24.77;;;;;;;4.29;68.29;100758.91;1677187;84;21280;-54
2021/03/13 08:00:21;;;;;;;44.33;23.38;;;;;;;4.36;68.02;100754.20;1704289;84;21264;-54
2021/03/13 08:03:43;;;;;;;40.98;21.70;;;;;;;4.39;67.81;100758.00;1671099;84;21257;-55
2021/03/13 08:07:06;;;;;;;42.00;22.37;;;;;;;4.44;67.58;100757.62;1676642;85;21227;-55
2021/03/13 08:10:13;;;;;;;53.90;26.15;;;;;;;4.51;67.43;100758.36;1708905;82;21735;-54
2021/03/13 08:13:45;;;;;;;55.15;26.82;;;;;;;4.50;67.13;100766.11;1701738;84;21383;-54
2021/03/13 08:16:51;;;;;;;54.15;27.67;;;;;;;4.58;67.09;100771.75;1703966;84;22100;-54
2021/03/13 08:19:56;;;;;;;45.58;25.90;;;;;;;4.59;66.69;100762.64;1677832;85;21210;-54
2021/03/13 08:23:24;;;;;;;46.92;26.00;;;;;;;4.55;66.57;100758.97;1657071;85;21618;-54
2021/03/13 08:26:43;;;;;;;46.70;26.25;;;;;;;4.49;66.65;100752.68;1676499;85;21215;-55
2021/03/13 08:29:57;;;;;;;48.10;25.35;;;;;;;4.50;66.79;100759.33;1669565;85;21249;-54
2021/03/13 08:33:12;;;;;;;47.45;27.05;;;;;;;4.70;66.92;100759.50;1676478;85;21437;-54
2021/03/13 08:36:25;;;;;;;45.88;25.52;;;;;;;4.84;66.60;100760.06;1676650;85;21891;-55
2021/03/13 08:39:36;;;;;;;42.85;22.15;;;;;;;4.95;66.40;100753.74;1675838;85;21231;-57
2021/03/13 08:42:41;;;;;;;37.13;22.17;;;;;;;5.11;66.19;100752.77;1691762;84;21573;-55
2021/03/13 08:45:45;;;;;;;42.75;23.47;;;;;;;5.13;65.40;100754.38;1689388;85;21263;-57
2021/03/13 08:49:05;;;;;;;45.83;24.55;;;;;;;5.11;65.40;100745.98;1689403;84;21780;-57
2021/03/13 08:52:24;;;;;;;50.67;24.02;;;;;;;5.13;65.21;100753.02;1689674;84;21710;-56
2021/03/13 08:55:39;;;;;;;45.58;23.47;;;;;;;5.25;65.16;100748.39;1690711;84;21203;-56
2021/03/13 08:58:50;;;;;;;40.20;22.98;;;;;;;5.30;64.97;100755.61;1659703;84;21699;-55
2021/03/13 09:02:12;;;;;;;;;;;;;;;5.36;64.81;100755.09;1674950;85;21289;-54
2021/03/13 09:05:28;;;;;;;37.45;23.30;;;;;;;5.33;64.78;100764.83;1633964;88;20231;-55
2021/03/13 09:08:35;;;;;;;45.67;25.30;;;;;;;5.32;64.75;100759.05;1679033;84;21329;-56
2021/03/13 09:11:42;;;;;;;41.88;24.05;;;;;;;5.25;64.66;100758.72;1685524;84;21233;-56
2021/03/13 09:14:52;;;;;;;40.67;22.55;;;;;;;5.25;64.75;100757.89;1705885;84;21344;-54
2021/03/13 09:17:58;;;;;;;40.12;23.73;;;;;;;5.34;65.00;100765.22;1704585;82;21742;-55
2021/03/13 09:21:04;;;;;;;41.68;24.35;;;;;;;5.49;64.71;100752.52;1667353;83;21248;-54
2021/03/13 09:24:12;;;;;;;46.10;24.67;;;;;;;5.64;64.56;100751.67;1697760;83;21264;-54
2021/03/13 09:27:22;;;;;;;43.60;25.43;;;;;;;5.74;63.80;100753.95;1638846;86;21285;-54
2021/03/13 09:30:31;;;;;;;37.35;23.12;;;;;;;5.54;63.71;100752.98;1678800;85;21251;-54
2021/03/13 09:33:37;;;;;;;40.83;24.32;;;;;;;5.46;63.97;100750.56;1665759;84;21239;-54
2021/03/13 09:36:46;;;;;;;44.20;25.85;;;;;;;5.34;64.29;100753.88;1671543;86;21769;-54
2021/03/13 09:39:53;;;;;;;43.95;24.98;;;;;;;5.46;64.65;100751.44;1667647;84;21227;-54
2021/03/13 09:42:59;;;;;;;40.23;22.67;;;;;;;5.59;64.49;100749.37;1692686;84;21388;-55
2021/03/13 09:46:05;;;;;;;40.45;23.67;;;;;;;5.63;64.05;100746.73;1685092;85;21755;-55
2021/03/13 09:49:13;;;;;;;45.38;24.80;;;;;;;5.61;64.20;100752.78;1691031;83;21774;-56
2021/03/13 09:52:19;;;;;;;44.77;24.82;;;;;;;5.68;63.98;100754.47;1686437;83;21230;-55
2021/03/13 09:55:30;;;;;;;41.05;24.20;;;;;;;5.63;64.10;100748.58;1686582;84;21742;-55
2021/03/13 09:58:34;;;;;;;40.43;23.42;;;;;;;5.59;63.91;100752.57;1686066;83;21311;-55
2021/03/13 10:01:39;;;;;;;42.38;23.30;;;;;;;5.61;64.21;100756.02;1687272;84;21401;-55
2021/03/13 10:04:45;;;;;;;45.73;23.95;;;;;;;5.75;63.98;100750.22;1686794;84;21485;-55
2021/03/13 10:07:57;;;;;;;37.90;22.20;;;;;;;5.69;63.66;100752.13;1691276;83;21242;-55
2021/03/13 10:11:02;;;;;;;40.63;22.55;;;;;;;5.59;63.80;100758.00;1686300;85;21360;-55
2021/03/13 10:14:10;;;;;;;33.78;20.30;;;;;;;5.64;64.03;100749.83;1686230;83;21388;-55
2021/03/13 10:17:15;;;;;;;32.05;20.32;;;;;;;5.80;63.79;100747.96;1685199;83;21274;-55
2021/03/13 10:20:24;;;;;;;35.80;22.52;;;;;;;5.86;63.51;100750.16;1691295;84;21913;-54
2021/03/13 10:23:42;;;;;;;35.88;22.90;;;;;;;5.96;63.46;100751.91;1686233;83;21926;-56
2021/03/13 10:26:48;;;;;;;37.00;21.60;;;;;;;6.00;63.02;100745.21;1686425;85;21412;-55
2021/03/13 10:30:05;;;;;;;34.78;21.33;;;;;;;5.79;63.04;100744.86;1686012;85;21301;-56
2021/03/13 10:33:11;;;;;;;38.35;22.93;;;;;;;5.74;63.52;100737.12;1686522;84;21962;-55
2021/03/13 10:36:19;;;;;;;45.25;23.87;;;;;;;5.74;63.46;100738.48;1685535;85;21214;-56
2021/03/13 10:39:24;;;;;;;49.48;27.60;;;;;;;5.68;63.68;100728.66;1686193;84;21277;-56
2021/03/13 10:42:34;;;;;;;52.35;26.45;;;;;;;5.59;63.84;100725.41;1686911;84;22098;-56
2021/03/13 10:45:38;;;;;;;45.10;26.20;;;;;;;5.64;64.28;100728.59;1668470;85;21826;-56
2021/03/13 10:48:57;;;;;;;44.88;25.43;;;;;;;5.70;64.05;100728.04;1700604;84;21228;-57
2021/03/13 10:52:03;;;;;;;55.25;26.07;;;;;;;5.67;64.27;100722.88;1668390;84;21286;-58
2021/03/13 10:55:09;;;;;;;47.20;24.95;;;;;;;5.72;64.49;100717.38;1700128;84;21243;-58
2021/03/13 10:58:15;;;;;;;49.23;25.57;;;;;;;5.79;64.08;100717.70;1658632;85;21248;-58
2021/03/13 11:01:21;;;;;;;47.33;26.02;;;;;;;5.69;64.19;100720.38;1658593;85;21223;-58
2021/03/13 11:04:27;;;;;;;45.10;24.32;;;;;;;5.68;64.51;100716.44;1717028;82;21197;-58
2021/03/13 11:07:33;;;;;;;50.88;27.42;;;;;;;5.70;64.45;100710.39;1666970;85;21228;-59
2021/03/13 11:10:39;;;;;;;48.23;27.65;;;;;;;5.67;64.69;100706.10;1655821;86;21219;-60
2021/03/13 11:13:44;;;;;;;47.73;26.87;;;;;;;5.91;64.82;100717.48;1672144;84;21242;-59
2021/03/13 11:16:51;;;;;;;51.10;28.17;;;;;;;6.14;64.24;100714.05;1666683;85;21261;-59
2021/03/13 11:19:57;;;;;;;47.08;25.77;;;;;;;6.36;63.69;100709.73;1671911;85;21766;-60
2021/03/13 11:23:02;;;;;;;48.70;27.85;;;;;;;6.54;63.42;100710.77;1640243;86;21635;-60
2021/03/13 11:26:11;;;;;;;50.40;26.55;;;;;;;6.64;62.70;100712.13;1671759;85;21819;-59
2021/03/13 11:29:16;;;;;;;46.65;24.20;;;;;;;6.72;62.32;100718.59;1685978;84;21232;-60
2021/03/13 11:32:25;;;;;;;46.92;25.52;;;;;;;6.62;62.36;100714.99;1706526;82;21355;-61
2021/03/13 11:35:32;;;;;;;48.00;27.58;;;;;;;6.59;62.55;100724.80;1706721;84;21215;-58
2021/03/13 11:38:40;;;;;;;49.83;27.07;;;;;;;6.43;62.40;100725.86;1706682;84;21357;-59
2021/03/13 11:41:48;;;;;;;48.95;26.93;;;;;;;6.20;62.99;100721.64;1704450;83;21737;-61
2021/03/13 11:44:56;;;;;;;51.40;25.27;;;;;;;6.10;63.61;100720.78;1675482;83;21723;-58
2021/03/13 11:48:03;;;;;;;47.10;26.48;;;;;;;6.18;63.91;100722.80;1739474;81;21189;-58
2021/03/13 11:51:08;;;;;;;44.53;25.27;;;;;;;6.25;63.93;100726.17;1705531;83;21378;-57
2021/03/13 11:54:15;;;;;;;47.23;26.87;;;;;;;6.32;63.80;100727.34;1695365;83;21236;-58
2021/03/13 11:57:21;;;;;;;50.92;28.07;;;;;;;6.30;63.72;100730.69;1658677;86;21412;-58
2021/03/13 12:00:27;;;;;;;41.20;24.95;;;;;;;6.30;63.81;100729.33;1705989;84;21794;-58
2021/03/13 12:03:32;;;;;;;48.70;27.50;;;;;;;6.29;63.74;100732.19;1705621;84;21412;-58
2021/03/13 12:06:40;;;;;;;42.73;26.30;;;;;;;6.31;63.83;100729.67;1677969;85;21283;-57
2021/03/13 12:09:46;;;;;;;47.85;27.80;;;;;;;6.35;63.72;100729.77;1677752;85;21239;-60
2021/03/13 12:12:52;;;;;;;49.30;28.17;;;;;;;6.32;63.75;100730.06;1641271;86;21811;-60
2021/03/13 12:15:57;;;;;;;43.05;25.77;;;;;;;6.32;63.77;100733.27;1674710;84;21312;-60
2021/03/13 12:19:02;;;;;;;42.17;26.55;;;;;;;6.34;63.79;100743.52;1658381;86;21346;-61
2021/03/13 12:22:10;;;;;;;47.20;27.27;;;;;;;6.37;63.64;100741.38;1706379;82;21233;-61
2021/03/13 12:25:17;;;;;;;50.00;28.57;;;;;;;6.32;63.50;100749.09;1667990;86;21764;-60
2021/03/13 12:28:23;;;;;;;51.88;27.13;;;;;;;6.26;63.60;100750.14;1700024;83;21226;-59
2021/03/13 12:31:28;;;;;;;48.48;27.27;;;;;;;6.24;63.78;100750.28;1636051;85;21261;-59
2021/03/13 12:34:34;;;;;;;44.42;26.70;;;;;;;6.26;63.96;100760.53;1660686;86;21371;-59
2021/03/13 12:37:40;;;;;;;47.55;28.50;;;;;;;6.30;63.93;100764.67;1706964;84;21888;-59
2021/03/13 12:40:46;;;;;;;48.28;27.90;;;;;;;6.26;63.92;100764.61;1707502;84;21704;-59
2021/03/13 12:43:50;;;;;;;44.35;26.48;;;;;;;6.24;63.94;100772.52;1706704;84;21353;-59
2021/03/13 12:46:55;;;;;;;45.98;27.98;;;;;;;6.20;64.03;100769.21;1693562;83;21241;-58
2021/03/13 12:50:02;;;;;;;48.20;26.25;;;;;;;6.17;64.16;100766.77;1688354;85;21579;-58
2021/03/13 12:53:08;;;;;;;45.80;26.07;;;;;;;6.18;64.21;100760.36;1688691;85;21423;-59
2021/03/13 12:56:15;;;;;;;47.67;29.30;;;;;;;6.27;64.19;100769.52;1688483;85;21427;-57
2021/03/13 12:59:20;;;;;;;53.63;30.77;;;;;;;6.28;64.00;100759.86;1688752;85;21430;-57
2021/03/13 13:02:25;;;;;;;51.63;29.50;;;;;;;6.22;64.00;100753.62;1688501;85;21240;-57
2021/03/13 13:05:31;;;;;;;50.75;28.47;;;;;;;6.23;64.22;100754.50;1688575;85;21539;-57
2021/03/13 13:08:39;;;;;;;48.73;27.15;;;;;;;6.26;64.20;100757.81;1688502;84;21414;-57
2021/03/13 13:11:47;;;;;;;50.65;28.75;;;;;;;6.23;64.08;100757.22;1688844;85;21370;-58
2021/03/13 13:14:53;;;;;;;50.83;28.77;;;;;;;6.09;64.19;100760.68;1688501;84;21225;-57
2021/03/13 13:17:58;;;;;;;46.92;27.77;;;;;;;5.97;64.54;100753.64;1688418;85;21399;-57
2021/03/13 13:21:06;;;;;;;50.98;29.27;;;;;;;5.96;64.88;100751.91;1688445;85;21221;-57
2021/03/13 13:24:11;;;;;;;50.67;28.62;;;;;;;5.89;64.84;100752.11;1688797;85;21894;-57
2021/03/13 13:27:17;;;;;;;55.00;29.20;;;;;;;5.85;65.12;100747.09;1688640;85;21387;-58
2021/03/13 13:30:25;;;;;;;50.80;28.70;;;;;;;5.77;65.32;100745.52;1688871;84;21383;-58
2021/03/13 13:33:30;;;;;;;61.18;31.30;;;;;;;5.76;65.68;100739.70;1688585;84;21391;-58
2021/03/13 13:36:35;;;;;;;52.20;28.60;;;;;;;5.79;65.84;100740.30;1688642;85;21280;-59
2021/03/13 13:39:41;;;;;;;55.90;29.70;;;;;;;5.81;65.84;100742.39;1688681;85;21237;-59
2021/03/13 13:42:47;;;;;;;48.08;28.27;;;;;;;5.74;65.88;100747.16;1688259;85;21379;-59
2021/03/13 13:45:56;;;;;;;56.95;30.97;;;;;;;5.76;66.24;100744.66;1688183;85;21360;-60
2021/03/13 13:49:03;;;;;;;56.73;31.87;;;;;;;5.79;66.13;100747.58;1698146;84;21365;-59
2021/03/13 13:52:08;;;;;;;61.37;32.23;;;;;;;5.74;66.38;100745.80;1669627;85;21191;-59
2021/03/13 13:55:17;;;;;;;50.23;28.75;;;;;;;5.77;66.58;100750.95;1697691;83;21583;-59
2021/03/13 13:58:22;;;;;;;57.73;29.37;;;;;;;5.81;66.58;100740.16;1669264;84;21613;-59
2021/03/13 14:01:27;;;;;;;56.13;30.25;;;;;;;5.87;66.61;100742.36;1697855;84;21355;-59
2021/03/13 14:04:34;;;;;;;57.78;30.30;;;;;;;5.91;66.67;100751.45;1668898;85;21218;-59
2021/03/13 14:07:39;;;;;;;51.37;30.23;;;;;;;5.98;66.64;100751.28;1698073;83;21210;-59
2021/03/13 14:10:46;;;;;;;55.05;31.12;;;;;;;6.06;66.62;100756.02;1697420;84;21375;-60
2021/03/13 14:13:51;;;;;;;53.85;30.35;;;;;;;6.13;66.49;100754.48;1668479;84;21294;-59
2021/03/13 14:16:58;;;;;;;60.75;30.97;;;;;;;6.17;66.45;100747.75;1697655;84;21349;-60
2021/03/13 14:20:03;;;;;;;70.32;34.60;;;;;;;6.16;66.39;100739.25;1642860;87;21829;-60
2021/03/13 14:23:09;;;;;;;69.07;35.88;;;;;;;6.17;66.53;100746.39;1641767;85;22197;-59
2021/03/13 14:26:16;;;;;;;82.02;38.42;;;;;;;6.18;66.58;100738.62;1670267;86;21333;-58